GCFV Airport Information

Runway Information
Runway 01 Length 11598 ft width 148 ft Elevation 37 ft Threshold 3481 ft Heading 2
Runway 19 Length 11598 ft Width 148 ft Elevation 75 ft Threshold 1719 ft Heading 182
Airport Frequencies
Type APP Name CANARIAS A Frequency 129.3 MHZ
Type ATIS Name ATIS Frequency 118.65 MHZ
Type GND Name GND Frequency 121.7 MHZ
Type TWR Name TWR Frequency 118.5 MHZ
Airport Navaids
Type VOR-DME Name Fuerteventura Frequency 114100 KHZ
Airport Weather Information & NOTAM
ADDS - METARS form results

(0336 UTC 12 August 2022)
Data provider http://aviationweather.gov/metar/data/
 
METAR text: GCFV 120330Z AUTO 36009KT 9999 BKN020 22/19 Q1013
Conditions at: GCFV (FUERTEVENTURA AR, ES) observed 0330 UTC 12 August 2022
Temperature: 22.0°C (72°F)
Dewpoint: 19.0°C (66°F) [RH = 83%]
Pressure (altimeter): 29.91 inches Hg (1013.0 mb)
Winds: from the N (360 degrees) at 10 MPH (9 knots; 4.6 m/s)
Visibility: 6 or more miles (10+ km)
Ceiling: 2000 feet AGL
Clouds: broken clouds at 2000 feet AGL
Weather: no significant weather observed at this time

METAR text: GCFV 120300Z AUTO 36010KT 9999 OVC021 22/18 Q1013
Conditions at: GCFV (FUERTEVENTURA AR, ES) observed 0300 UTC 12 August 2022
Temperature: 22.0°C (72°F)
Dewpoint: 18.0°C (64°F) [RH = 78%]
Pressure (altimeter): 29.91 inches Hg (1013.0 mb)
Winds: from the N (360 degrees) at 12 MPH (10 knots; 5.1 m/s)
Visibility: 6 or more miles (10+ km)
Ceiling: 2100 feet AGL
Clouds: overcast cloud deck at 2100 feet AGL
Weather: no significant weather observed at this time

Forecast for: GCFV (FUERTEVENTURA AR, ES)
Text: TAF GCFV 120200Z 1203/1303 35009KT 9999 FEW025 TX26/1214Z TN21/1206Z
Forecast period: 0300 to 0800 UTC 12 August 2022
Forecast type: FROM: standard forecast or significant change
Winds: from the N (350 degrees) at 10 MPH (9 knots; 4.6 m/s)
Visibility: 6 or more miles (10+ km)
Ceiling: at least 12,000 feet AGL
Clouds: few clouds at 2500 feet AGL
Weather: no significant weather forecast for this period
Text: BECMG 1208/1211 05014KT
Forecast period: 0800 UTC 12 August 2022 to 0300 UTC 13 August 2022
Forecast type: BECOMING: Conditions expected to become as follows by 1100 UTC 12 August 2022
Winds: from the NE (50 degrees) at 16 MPH (14 knots; 7.2 m/s)
Visibility: 6 or more miles (10+ km)
Ceiling: at least 12,000 feet AGL
Clouds: few clouds at 2500 feet AGL
Weather: no significant weather forecast for this period